Time;durP1;ratioP1;P1;durP2;ratioP2;P2;SDS_P1;SDS_P2;PMS_P1;PMS_P2;Temp;Humidity;BMP_temperature;BMP_pressure;BME280_temperature;BME280_humidity;BME280_pressure;Samples;Min_cycle;Max_cycle;Signal;HPM_P1;HPM_P2
2022/04/08 00:01:50;;;;;;;0.20;0.20;;;;;;;7.84;100.00;97842.06;5012849;28;20038;-63
2022/04/08 00:04:15;;;;;;;0.10;0.10;;;;;;;7.96;100.00;97854.88;5019295;28;20091;-65
2022/04/08 00:06:41;;;;;;;0.10;0.10;;;;;;;7.81;100.00;97853.56;5011020;28;20057;-63
2022/04/08 00:09:06;;;;;;;0.10;0.10;;;;;;;7.86;100.00;97874.53;5027526;28;20037;-64
2022/04/08 00:11:32;;;;;;;0.10;0.10;;;;;;;7.75;100.00;97877.38;5027684;28;20050;-64
2022/04/08 00:13:57;;;;;;;0.10;0.10;;;;;;;7.70;100.00;97885.88;5030341;28;20209;-63
2022/04/08 00:16:23;;;;;;;0.10;0.10;;;;;;;7.70;100.00;97887.78;5009833;28;20221;-64
2022/04/08 00:18:48;;;;;;;0.10;0.10;;;;;;;7.88;100.00;97901.69;5010260;28;20431;-64
2022/04/08 00:21:15;;;;;;;0.10;0.10;;;;;;;7.93;100.00;97917.31;5017117;28;20048;-64
2022/04/08 00:23:42;;;;;;;0.10;0.10;;;;;;;7.72;100.00;97914.94;5028101;28;20465;-64
2022/04/08 00:26:07;;;;;;;0.10;0.10;;;;;;;7.74;100.00;97926.00;5020407;28;20072;-63
2022/04/08 00:28:33;;;;;;;0.10;0.10;;;;;;;7.84;100.00;97923.16;5009662;28;20507;-65
2022/04/08 00:31:00;;;;;;;0.10;0.10;;;;;;;7.83;100.00;97945.75;5010260;28;20125;-64
2022/04/08 00:33:25;;;;;;;0.10;0.10;;;;;;;7.83;100.00;97953.81;5015531;28;20042;-65
2022/04/08 00:35:51;;;;;;;0.00;0.00;;;;;;;7.78;100.00;97964.94;5020492;28;20042;-64
2022/04/08 00:38:16;;;;;;;0.05;0.05;;;;;;;7.73;100.00;97965.41;5028788;28;20156;-64
2022/04/08 00:40:42;;;;;;;0.10;0.10;;;;;;;7.72;100.00;97971.94;5031289;28;20511;-64
2022/04/08 00:43:14;;;;;;;0.10;0.10;;;;;;;7.64;100.00;97980.44;5026900;28;20033;-65
2022/04/08 00:45:40;;;;;;;0.15;0.15;;;;;;;7.48;100.00;97988.28;5009126;28;20029;-64
2022/04/08 00:48:07;;;;;;;0.15;0.15;;;;;;;7.59;100.00;97994.28;5009610;28;20491;-64
2022/04/08 00:50:43;;;;;;;0.10;0.10;;;;;;;7.58;100.00;98006.16;5009570;28;20029;-64
2022/04/08 00:53:09;;;;;;;0.10;0.10;;;;;;;7.45;100.00;98015.84;5023610;28;20041;-66
2022/04/08 00:55:36;;;;;;;0.10;0.10;;;;;;;7.60;100.00;98027.94;5025430;28;20108;-66
2022/04/08 00:58:03;;;;;;;0.10;0.10;;;;;;;7.61;100.00;98032.09;5025414;28;20045;-66
2022/04/08 01:00:33;;;;;;;0.10;0.10;;;;;;;7.65;100.00;98043.53;4993375;28;20021;-64
2022/04/08 01:02:59;;;;;;;0.10;0.10;;;;;;;7.42;100.00;98051.44;5026957;28;20045;-64
2022/04/08 01:05:26;;;;;;;0.10;0.10;;;;;;;7.49;100.00;98059.41;5027900;28;20076;-62
2022/04/08 01:07:53;;;;;;;0.10;0.10;;;;;;;7.54;100.00;98064.31;5028976;28;20041;-66
2022/04/08 01:10:19;;;;;;;0.10;0.10;;;;;;;7.45;100.00;98074.75;5020131;28;20091;-64
2022/04/08 01:12:45;;;;;;;0.10;0.10;;;;;;;7.57;100.00;98088.38;5015986;28;20128;-64
2022/04/08 01:15:10;;;;;;;0.10;0.10;;;;;;;7.52;100.00;98088.06;5011817;28;20056;-64
2022/04/08 01:17:36;;;;;;;0.10;0.10;;;;;;;7.15;100.00;98100.25;5007300;28;20064;-64
2022/04/08 01:20:02;;;;;;;0.10;0.10;;;;;;;7.35;100.00;98110.41;5009380;28;20069;-66
2022/04/08 01:22:28;;;;;;;0.10;0.10;;;;;;;7.37;100.00;98121.47;5017964;28;20501;-65
2022/04/08 01:25:01;;;;;;;0.10;0.10;;;;;;;7.17;100.00;98129.28;5009194;28;20021;-65
2022/04/08 01:27:28;;;;;;;0.10;0.10;;;;;;;7.37;100.00;98122.25;5001396;28;20527;-64
2022/04/08 01:29:54;;;;;;;0.10;0.10;;;;;;;7.20;100.00;98137.28;5010254;28;20115;-63
2022/04/08 01:32:20;;;;;;;0.10;0.10;;;;;;;7.23;100.00;98141.84;5013322;28;20190;-63
2022/04/08 01:34:45;;;;;;;0.10;0.10;;;;;;;7.24;100.00;98143.38;5015781;28;20125;-63
2022/04/08 01:37:11;;;;;;;0.10;0.10;;;;;;;7.30;100.00;98135.66;5009137;28;20030;-63
2022/04/08 01:39:40;;;;;;;0.10;0.10;;;;;;;7.22;100.00;98145.66;5026452;28;20415;-63
2022/04/08 01:42:06;;;;;;;0.10;0.10;;;;;;;7.28;100.00;98146.00;5021823;28;20033;-64
2022/04/08 01:44:31;;;;;;;0.10;0.10;;;;;;;7.24;100.00;98148.72;5025200;28;20036;-63
2022/04/08 01:46:56;;;;;;;0.10;0.10;;;;;;;7.19;100.00;98151.06;5008690;28;20438;-63
2022/04/08 01:49:22;;;;;;;0.10;0.10;;;;;;;7.19;100.00;98164.44;5010319;28;20509;-64
2022/04/08 01:51:47;;;;;;;0.13;0.13;;;;;;;7.17;100.00;98164.84;5028730;28;20038;-63
2022/04/08 01:54:13;;;;;;;0.10;0.10;;;;;;;7.18;100.00;98177.03;5020287;28;20068;-64
2022/04/08 01:56:38;;;;;;;0.20;0.20;;;;;;;7.23;100.00;98179.31;5008466;28;20058;-63
2022/04/08 01:59:03;;;;;;;0.10;0.10;;;;;;;7.01;100.00;98177.94;5012207;28;20073;-63
2022/04/08 02:01:29;;;;;;;0.10;0.10;;;;;;;7.00;100.00;98181.00;5025011;28;20033;-65
2022/04/08 02:03:55;;;;;;;0.10;0.10;;;;;;;7.10;100.00;98185.53;5020283;28;20029;-63
2022/04/08 02:06:20;;;;;;;0.10;0.10;;;;;;;7.17;100.00;98196.19;5005061;28;20118;-64
2022/04/08 02:08:46;;;;;;;0.10;0.10;;;;;;;7.16;100.00;98205.38;5029013;28;20392;-63
2022/04/08 02:11:11;;;;;;;0.10;0.10;;;;;;;7.10;100.00;98201.59;5010720;28;20037;-66
2022/04/08 02:13:36;;;;;;;0.10;0.10;;;;;;;7.24;100.00;98215.63;5025957;28;20037;-63
2022/04/08 02:16:03;;;;;;;0.08;0.08;;;;;;;7.09;100.00;98214.19;5011364;28;20063;-64
2022/04/08 02:18:30;;;;;;;0.10;0.10;;;;;;;7.14;100.00;98210.34;5024213;28;20565;-65
2022/04/08 02:20:56;;;;;;;0.20;0.20;;;;;;;7.18;100.00;98221.81;5025524;28;20048;-66
2022/04/08 02:23:22;;;;;;;0.15;0.15;;;;;;;7.26;100.00;98226.69;5014477;28;20037;-65
2022/04/08 02:25:47;;;;;;;0.10;0.10;;;;;;;7.34;100.00;98235.44;5024556;28;20048;-63
2022/04/08 02:28:13;;;;;;;0.10;0.10;;;;;;;7.11;100.00;98227.94;5029784;28;20127;-63
2022/04/08 02:30:38;;;;;;;0.10;0.10;;;;;;;7.13;100.00;98228.31;5027572;28;20041;-63
2022/04/08 02:33:04;;;;;;;0.35;0.35;;;;;;;7.14;100.00;98235.19;5012871;28;20492;-65
2022/04/08 02:35:31;;;;;;;0.10;0.10;;;;;;;7.18;100.00;98246.63;5031721;28;20029;-66
2022/04/08 02:37:56;;;;;;;0.00;0.00;;;;;;;7.08;100.00;98236.75;5008318;28;20377;-65
2022/04/08 02:40:21;;;;;;;0.10;0.10;;;;;;;7.05;100.00;98250.13;5012056;28;20041;-63
2022/04/08 02:42:47;;;;;;;0.10;0.10;;;;;;;6.94;100.00;98250.22;5008609;28;20033;-65
2022/04/08 02:45:12;;;;;;;0.10;0.10;;;;;;;7.17;100.00;98260.41;5028474;28;20025;-65
2022/04/08 02:47:44;;;;;;;0.10;0.10;;;;;;;7.18;100.00;98261.94;5029593;28;20454;-63
2022/04/08 02:50:11;;;;;;;0.10;0.10;;;;;;;6.95;100.00;98270.44;5025053;28;20125;-63
2022/04/08 02:52:36;;;;;;;0.10;0.10;;;;;;;7.08;100.00;98302.88;5026951;28;20084;-65
2022/04/08 02:55:03;;;;;;;0.10;0.10;;;;;;;7.17;100.00;98287.16;5011888;28;20488;-66
2022/04/08 02:57:29;;;;;;;0.10;0.10;;;;;;;7.09;100.00;98302.50;5010044;28;20076;-64
2022/04/08 02:59:54;;;;;;;1.10;0.45;;;;;;;7.18;100.00;98320.81;5026186;28;20061;-64
2022/04/08 03:02:20;;;;;;;0.00;0.00;;;;;;;6.99;100.00;98324.69;5010590;28;20555;-63
2022/04/08 03:04:45;;;;;;;0.10;0.10;;;;;;;6.99;100.00;98327.38;5030252;28;20524;-64
2022/04/08 03:07:11;;;;;;;0.10;0.10;;;;;;;6.84;100.00;98341.94;5022486;28;20177;-63
2022/04/08 03:09:39;;;;;;;0.00;0.00;;;;;;;7.03;100.00;98338.81;5010249;28;20042;-64
2022/04/08 03:12:05;;;;;;;0.05;0.05;;;;;;;6.85;100.00;98350.75;5023634;28;20042;-63
2022/04/08 03:14:33;;;;;;;0.10;0.10;;;;;;;6.76;98.64;98348.47;5013384;28;20037;-63
2022/04/08 03:16:59;;;;;;;0.10;0.10;;;;;;;6.61;98.44;98346.97;5008855;28;20214;-63
2022/04/08 03:19:24;;;;;;;0.10;0.10;;;;;;;6.57;98.67;98351.56;5011068;28;20026;-64
2022/04/08 03:21:50;;;;;;;0.20;0.20;;;;;;;6.59;97.50;98354.63;5011913;28;20076;-63
2022/04/08 03:24:16;;;;;;;0.60;0.60;;;;;;;6.67;97.97;98376.75;5022079;28;20044;-63
2022/04/08 03:26:42;;;;;;;0.10;0.10;;;;;;;6.59;98.22;98362.63;5014578;28;20041;-63
2022/04/08 03:29:08;;;;;;;0.10;0.10;;;;;;;6.66;96.63;98359.19;5028299;28;20531;-64
2022/04/08 03:31:33;;;;;;;0.20;0.20;;;;;;;6.55;98.09;98355.75;5016472;28;20030;-63
2022/04/08 03:33:59;;;;;;;0.10;0.10;;;;;;;6.67;96.05;98361.47;5018987;28;20532;-63
2022/04/08 03:36:24;;;;;;;0.10;0.10;;;;;;;6.61;96.07;98363.00;5017953;28;20030;-64
2022/04/08 03:38:49;;;;;;;0.10;0.10;;;;;;;6.62;95.85;98369.88;5010299;28;20034;-64
2022/04/08 03:41:15;;;;;;;0.10;0.10;;;;;;;6.42;96.80;98362.66;5015232;28;20033;-64
2022/04/08 03:43:41;;;;;;;0.10;0.10;;;;;;;6.54;97.11;98365.72;5011772;28;20404;-64
2022/04/08 03:46:07;;;;;;;0.10;0.10;;;;;;;6.69;96.33;98364.53;5021938;28;20047;-64
2022/04/08 03:48:32;;;;;;;0.10;0.10;;;;;;;6.83;94.58;98374.44;5023927;28;20419;-63
2022/04/08 03:50:57;;;;;;;0.10;0.10;;;;;;;6.66;93.57;98372.56;5031797;28;20225;-63
2022/04/08 03:53:23;;;;;;;0.10;0.10;;;;;;;6.67;92.35;98387.44;5020536;28;20064;-64
2022/04/08 03:55:48;;;;;;;0.10;0.10;;;;;;;6.65;91.46;98379.03;4996485;28;20091;-64
2022/04/08 03:58:15;;;;;;;0.10;0.10;;;;;;;6.49;91.72;98376.78;5011764;28;20324;-63
2022/04/08 04:00:41;;;;;;;0.10;0.10;;;;;;;6.70;90.57;98390.13;5028969;28;20034;-63
2022/04/08 04:03:06;;;;;;;0.10;0.10;;;;;;;6.59;89.92;98392.03;5002014;28;20417;-63
2022/04/08 04:05:35;;;;;;;0.28;0.28;;;;;;;6.62;89.94;98391.25;4997627;28;20048;-63
2022/04/08 04:08:02;;;;;;;0.10;0.10;;;;;;;6.66;90.99;98401.97;5011579;28;21154;-63
2022/04/08 04:10:27;;;;;;;0.10;0.10;;;;;;;6.54;90.23;98405.03;5006980;28;20539;-63
2022/04/08 04:12:53;;;;;;;0.20;0.20;;;;;;;6.56;90.46;98408.09;5020840;28;20153;-63
2022/04/08 04:15:19;;;;;;;0.10;0.10;;;;;;;6.52;90.17;98412.69;5022632;28;20108;-64
2022/04/08 04:17:45;;;;;;;0.10;0.10;;;;;;;6.64;90.78;98420.31;4987464;28;20116;-64
2022/04/08 04:20:11;;;;;;;0.10;0.10;;;;;;;6.40;90.61;98429.84;5025538;28;20084;-64
2022/04/08 04:22:37;;;;;;;0.10;0.10;;;;;;;6.41;91.53;98428.69;5017430;28;20129;-64
2022/04/08 04:25:03;;;;;;;0.10;0.10;;;;;;;6.35;90.67;98446.25;5018288;28;20112;-63
2022/04/08 04:27:28;;;;;;;0.10;0.10;;;;;;;6.55;90.60;98439.41;5045528;22;20072;-62
2022/04/08 04:29:54;;;;;;;0.10;0.10;;;;;;;6.68;89.75;98463.88;5037208;28;20073;-64
2022/04/08 04:32:19;;;;;;;0.10;0.10;;;;;;;6.52;89.14;98460.78;5047647;28;20047;-65
2022/04/08 04:34:45;;;;;;;0.10;0.10;;;;;;;6.27;90.37;98466.88;5050720;28;20116;-65
2022/04/08 04:37:11;;;;;;;0.10;0.10;;;;;;;6.50;90.32;98471.88;5018033;28;20044;-65
2022/04/08 04:39:37;;;;;;;0.10;0.10;;;;;;;6.20;90.71;98476.78;5042705;28;20033;-65
2022/04/08 04:42:03;;;;;;;0.10;0.10;;;;;;;6.14;91.44;98480.97;5031752;28;20041;-63
2022/04/08 04:44:29;;;;;;;0.20;0.20;;;;;;;6.22;91.65;98480.63;5030030;28;20033;-64
2022/04/08 04:46:55;;;;;;;0.10;0.10;;;;;;;6.09;92.48;98489.38;5031972;28;20120;-64
2022/04/08 04:49:21;;;;;;;0.10;0.10;;;;;;;6.34;91.79;98500.88;5038733;28;20036;-64
2022/04/08 04:51:48;;;;;;;0.10;0.10;;;;;;;6.56;90.57;98499.00;5028340;28;20060;-64
2022/04/08 04:54:14;;;;;;;0.20;0.20;;;;;;;6.25;92.38;98505.81;5034323;28;20399;-65
2022/04/08 04:56:39;;;;;;;0.10;0.10;;;;;;;6.21;93.13;98499.69;5032974;28;20037;-62
2022/04/08 04:59:04;;;;;;;0.10;0.10;;;;;;;6.53;91.13;98508.53;5030899;28;20036;-64
2022/04/08 05:01:30;;;;;;;0.10;0.10;;;;;;;6.18;92.87;98505.78;5034863;28;20835;-64
2022/04/08 05:03:55;;;;;;;0.10;0.10;;;;;;;6.09;94.23;98514.19;5041497;28;20036;-64
2022/04/08 05:06:21;;;;;;;0.20;0.20;;;;;;;6.06;94.57;98524.81;5026871;28;20033;-64
2022/04/08 05:08:47;;;;;;;0.10;0.10;;;;;;;5.96;95.25;98520.97;5029277;28;20562;-64
2022/04/08 05:11:13;;;;;;;0.10;0.10;;;;;;;6.16;93.93;98526.78;5020714;28;20068;-65
2022/04/08 05:13:38;;;;;;;0.10;0.10;;;;;;;6.08;94.44;98527.88;5039470;28;20062;-64
2022/04/08 05:16:04;;;;;;;0.00;0.00;;;;;;;6.26;94.19;98537.50;5025578;28;20484;-63
2022/04/08 05:18:29;;;;;;;0.20;0.20;;;;;;;6.13;95.29;98538.22;5029299;28;20042;-67
2022/04/08 05:20:55;;;;;;;0.10;0.10;;;;;;;6.15;94.80;98531.38;5029987;28;20037;-63
2022/04/08 05:23:20;;;;;;;0.10;0.10;;;;;;;6.30;94.32;98543.63;5029572;28;20045;-65
2022/04/08 05:25:46;;;;;;;0.30;0.30;;;;;;;6.39;93.83;98537.91;5037741;28;20024;-64
2022/04/08 05:28:12;;;;;;;0.10;0.10;;;;;;;6.38;94.78;98541.72;5044426;28;20495;-66
2022/04/08 05:30:38;;;;;;;0.10;0.10;;;;;;;6.44;95.16;98544.78;5024346;28;20072;-64
2022/04/08 05:33:04;;;;;;;0.20;0.20;;;;;;;6.48;94.28;98553.59;5037676;28;20060;-66
2022/04/08 05:35:29;;;;;;;0.10;0.10;;;;;;;6.45;94.54;98551.66;5036099;28;20052;-65
2022/04/08 05:37:55;;;;;;;0.10;0.10;;;;;;;6.65;93.73;98556.28;5043376;28;20040;-64
2022/04/08 05:40:21;;;;;;;0.10;0.10;;;;;;;6.47;94.32;98565.41;5020340;28;20038;-65
2022/04/08 05:42:48;;;;;;;0.10;0.10;;;;;;;6.37;95.40;98573.03;5029388;28;20037;-65
2022/04/08 05:45:17;;;;;;;0.10;0.10;;;;;;;6.24;95.97;98584.44;5030326;28;20715;-64
2022/04/08 05:47:42;;;;;;;0.10;0.10;;;;;;;6.27;96.07;98586.38;5020997;28;20378;-66
2022/04/08 05:50:08;;;;;;;0.10;0.10;;;;;;;6.47;95.58;98589.47;5030676;28;20037;-63
2022/04/08 05:52:34;;;;;;;0.10;0.10;;;;;;;6.48;95.38;98599.81;5032101;28;20123;-65
2022/04/08 05:55:00;;;;;;;0.10;0.10;;;;;;;6.81;93.67;98598.72;5028191;28;20112;-64
2022/04/08 05:57:26;;;;;;;0.10;0.10;;;;;;;6.67;94.08;98593.34;5034743;28;20032;-65
2022/04/08 05:59:58;;;;;;;0.10;0.10;;;;;;;6.27;96.07;98597.81;5035156;28;20098;-65
2022/04/08 06:02:24;;;;;;;0.20;0.20;;;;;;;6.30;97.28;98609.66;5034063;28;20033;-64
2022/04/08 06:04:49;;;;;;;0.20;0.20;;;;;;;6.65;95.96;98603.66;5038433;28;20086;-64
2022/04/08 06:07:15;;;;;;;0.10;0.10;;;;;;;6.62;95.56;98621.22;5031765;28;20037;-62
2022/04/08 06:09:40;;;;;;;0.73;0.73;;;;;;;6.52;95.11;98616.63;5022388;28;20060;-63
2022/04/08 06:12:06;;;;;;;0.20;0.20;;;;;;;6.49;95.97;98621.94;5032816;28;20100;-63
2022/04/08 06:14:31;;;;;;;0.20;0.20;;;;;;;6.80;94.39;98632.72;5031017;28;20037;-64
2022/04/08 06:16:57;;;;;;;0.10;0.10;;;;;;;6.55;95.88;98623.88;5043960;28;20570;-63
2022/04/08 06:19:22;;;;;;;0.10;0.10;;;;;;;6.36;95.88;98619.63;5043447;28;20059;-64
2022/04/08 06:21:48;;;;;;;0.10;0.10;;;;;;;6.39;97.07;98632.22;5047411;28;20067;-65
2022/04/08 06:24:13;;;;;;;0.65;0.65;;;;;;;6.60;97.00;98628.84;5037937;28;20048;-64
2022/04/08 06:26:39;;;;;;;0.45;0.45;;;;;;;6.69;96.02;98633.84;5032419;28;20099;-64
2022/04/08 06:29:05;;;;;;;0.10;0.10;;;;;;;6.84;95.39;98638.84;5046490;28;20033;-65
2022/04/08 06:31:32;;;;;;;0.13;0.13;;;;;;;6.93;95.00;98636.56;5043091;28;20364;-65
2022/04/08 06:33:58;;;;;;;0.10;0.10;;;;;;;7.11;94.65;98641.94;5037018;28;20041;-64
2022/04/08 06:36:25;;;;;;;0.10;0.10;;;;;;;7.02;94.56;98636.97;5030868;28;20047;-64
2022/04/08 06:38:50;;;;;;;0.20;0.20;;;;;;;7.01;94.00;98642.69;5031484;28;20138;-64
2022/04/08 06:41:16;;;;;;;0.10;0.10;;;;;;;7.24;93.35;98646.53;5033443;28;20431;-66
2022/04/08 06:43:41;;;;;;;0.10;0.10;;;;;;;7.19;93.71;98638.91;5031427;28;20029;-67
2022/04/08 06:46:06;;;;;;;0.10;0.10;;;;;;;7.29;93.74;98646.19;5039086;28;20098;-63
2022/04/08 06:48:33;;;;;;;0.10;0.10;;;;;;;7.37;93.43;98646.94;5047376;28;20082;-65
2022/04/08 06:51:00;;;;;;;0.55;0.55;;;;;;;7.72;91.82;98648.84;5026407;28;20067;-65
2022/04/08 06:53:25;;;;;;;0.10;0.10;;;;;;;7.74;91.79;98647.28;5039993;28;20033;-61
2022/04/08 06:55:51;;;;;;;0.10;0.10;;;;;;;7.63;90.10;98651.13;5045414;28;20399;-64
2022/04/08 06:58:16;;;;;;;0.10;0.10;;;;;;;7.80;90.81;98656.47;5051263;28;20056;-63
2022/04/08 07:00:42;;;;;;;0.10;0.10;;;;;;;7.80;90.41;98653.78;5049046;28;20035;-65
2022/04/08 07:03:10;;;;;;;0.10;0.10;;;;;;;8.21;89.14;98659.44;5045947;28;20032;-64
2022/04/08 07:05:35;;;;;;;0.10;0.10;;;;;;;8.60;86.84;98660.09;5048574;28;20036;-64
2022/04/08 07:08:00;;;;;;;0.10;0.10;;;;;;;8.72;85.83;98662.34;5042908;28;20511;-63
2022/04/08 07:10:26;;;;;;;0.10;0.10;;;;;;;8.56;85.11;98674.66;5037423;28;20057;-64
2022/04/08 07:12:52;;;;;;;0.10;0.10;;;;;;;8.57;85.10;98647.47;5041259;28;20040;-64
2022/04/08 07:15:17;;;;;;;0.50;0.50;;;;;;;8.71;83.81;98671.53;5043443;28;20117;-62
2022/04/08 07:17:43;;;;;;;0.10;0.10;;;;;;;8.67;84.62;98681.50;5047064;28;20655;-64
2022/04/08 07:20:08;;;;;;;0.10;0.10;;;;;;;8.41;84.19;98670.50;5042122;28;20091;-63
2022/04/08 07:22:34;;;;;;;0.80;0.80;;;;;;;8.47;84.44;98677.00;5044724;28;20031;-63
2022/04/08 07:25:00;;;;;;;0.10;0.10;;;;;;;8.54;84.60;98675.06;5050666;28;20029;-61
2022/04/08 07:27:25;;;;;;;0.10;0.10;;;;;;;8.66;83.43;98680.00;5039998;28;20040;-63
2022/04/08 07:29:51;;;;;;;0.10;0.10;;;;;;;8.31;84.60;98684.72;5050938;28;20025;-64
2022/04/08 07:32:20;;;;;;;0.10;0.10;;;;;;;8.27;85.72;98679.38;5045815;28;20548;-63
2022/04/08 07:34:50;;;;;;;0.28;0.28;;;;;;;8.65;84.96;98691.88;5042167;28;20062;-64
2022/04/08 07:37:28;;;;;;;0.10;0.10;;;;;;;8.85;85.48;98692.16;5049918;28;20510;-63
2022/04/08 07:39:53;;;;;;;0.10;0.10;;;;;;;8.83;82.25;98697.94;5048422;28;20037;-64
2022/04/08 07:42:19;;;;;;;0.10;0.10;;;;;;;8.72;82.15;98702.59;5041331;28;20062;-63
2022/04/08 07:44:44;;;;;;;0.10;0.10;;;;;;;8.78;81.63;98716.34;5047852;28;20145;-63
2022/04/08 07:47:10;;;;;;;0.10;0.10;;;;;;;8.85;81.27;98708.25;5049944;28;20025;-62
2022/04/08 07:49:36;;;;;;;0.10;0.10;;;;;;;8.70;81.74;98701.44;5048400;28;20056;-64
2022/04/08 07:52:02;;;;;;;0.10;0.10;;;;;;;8.87;81.42;98716.69;5050876;28;20033;-64
2022/04/08 07:54:27;;;;;;;0.10;0.10;;;;;;;8.80;81.19;98732.84;5043858;28;20032;-64
2022/04/08 07:56:53;;;;;;;0.10;0.10;;;;;;;8.40;81.37;98728.72;5032307;28;20442;-65
2022/04/08 07:59:18;;;;;;;0.10;0.10;;;;;;;8.18;83.12;98735.28;5032651;28;20550;-64
2022/04/08 08:01:44;;;;;;;0.10;0.10;;;;;;;8.07;84.51;98739.91;5045184;28;20514;-62
2022/04/08 08:04:09;;;;;;;0.10;0.10;;;;;;;8.19;85.27;98742.16;5049143;28;20825;-63
2022/04/08 08:06:35;;;;;;;0.10;0.10;;;;;;;8.31;85.05;98739.13;5048447;28;20037;-64
2022/04/08 08:09:00;;;;;;;0.10;0.10;;;;;;;8.15;85.80;98733.34;5050183;28;20037;-63
2022/04/08 08:11:26;;;;;;;0.10;0.10;;;;;;;8.55;85.30;98735.63;5046618;28;20725;-64
2022/04/08 08:13:52;;;;;;;0.13;0.13;;;;;;;8.93;84.67;98732.00;5041426;28;20028;-64
2022/04/08 08:16:17;;;;;;;0.10;0.10;;;;;;;8.83;82.40;98732.03;5041004;28;20094;-64
2022/04/08 08:18:43;;;;;;;0.10;0.10;;;;;;;8.96;82.09;98730.47;5048468;28;20126;-63
2022/04/08 08:21:09;;;;;;;0.10;0.10;;;;;;;9.12;81.43;98733.44;5032179;28;20124;-63
2022/04/08 08:23:34;;;;;;;0.10;0.10;;;;;;;9.28;81.04;98746.38;5048050;28;20041;-64
2022/04/08 08:25:59;;;;;;;0.25;0.25;;;;;;;9.29;79.85;98753.31;5029797;28;20052;-63
2022/04/08 08:28:25;;;;;;;0.10;0.10;;;;;;;9.21;80.26;98738.38;5028137;28;20041;-64
2022/04/08 08:30:50;;;;;;;0.10;0.10;;;;;;;9.10;80.70;98746.47;5045357;28;20044;-64
2022/04/08 08:33:18;;;;;;;0.10;0.10;;;;;;;8.93;80.45;98758.84;5045587;28;20423;-64
2022/04/08 08:35:45;;;;;;;0.10;0.10;;;;;;;8.77;81.90;98760.44;5044939;28;20048;-63
2022/04/08 08:38:10;;;;;;;0.10;0.10;;;;;;;9.09;81.54;98759.16;5048848;28;20040;-64
2022/04/08 08:40:36;;;;;;;0.10;0.10;;;;;;;8.96;83.15;98768.78;5048371;28;20040;-63
2022/04/08 08:43:02;;;;;;;0.10;0.10;;;;;;;9.05;81.35;98760.31;5037627;28;20033;-64
2022/04/08 08:45:37;;;;;;;0.10;0.10;;;;;;;9.12;80.07;98765.66;5046419;28;20667;-63
2022/04/08 08:48:04;;;;;;;0.10;0.10;;;;;;;9.14;79.80;98759.91;5042488;28;20056;-63
2022/04/08 08:50:30;;;;;;;0.10;0.10;;;;;;;9.14;80.14;98768.72;5042099;28;20029;-63
2022/04/08 08:52:57;;;;;;;0.10;0.10;;;;;;;9.01;81.27;98768.41;5038333;28;20032;-63
2022/04/08 08:55:23;;;;;;;0.10;0.10;;;;;;;9.01;81.62;98764.94;5043043;28;20044;-64
2022/04/08 08:57:49;;;;;;;0.10;0.10;;;;;;;9.42;81.15;98770.50;5048011;28;20037;-64
2022/04/08 09:00:18;;;;;;;0.20;0.20;;;;;;;9.66;81.38;98773.00;5042146;28;20403;-64
2022/04/08 09:02:44;;;;;;;0.10;0.10;;;;;;;9.62;79.85;98761.50;5048093;28;20131;-63
2022/04/08 09:05:24;;;;;;;0.17;0.17;;;;;;;9.58;79.04;98763.47;5047841;28;20091;-63
2022/04/08 09:07:59;;;;;;;0.10;0.10;;;;;;;9.76;78.56;98766.03;5030963;28;20030;-63
2022/04/08 09:10:31;;;;;;;0.10;0.10;;;;;;;9.95;78.04;98771.63;5024046;28;20128;-64
2022/04/08 09:12:58;;;;;;;0.10;0.10;;;;;;;9.96;75.35;98759.75;5032130;28;20046;-64
2022/04/08 09:15:24;;;;;;;0.17;0.17;;;;;;;9.84;73.21;98768.28;5038212;28;20032;-64
2022/04/08 09:17:51;;;;;;;0.10;0.10;;;;;;;10.01;71.67;98775.44;5038633;28;20025;-64
2022/04/08 09:20:16;;;;;;;0.30;0.30;;;;;;;10.02;71.70;98771.59;5038524;28;20112;-64
2022/04/08 09:22:42;;;;;;;0.30;0.30;;;;;;;10.11;72.39;98771.16;5038750;28;20171;-64
2022/04/08 09:25:10;;;;;;;0.10;0.10;;;;;;;10.14;72.43;98769.59;5042578;28;20546;-63
2022/04/08 09:27:37;;;;;;;0.20;0.20;;;;;;;9.80;71.33;98767.53;5047153;28;20165;-64
2022/04/08 09:30:03;;;;;;;0.10;0.10;;;;;;;10.05;71.74;98775.41;5047124;28;20036;-64
2022/04/08 09:32:29;;;;;;;0.25;0.25;;;;;;;10.04;69.49;98773.88;5045661;28;20029;-63
2022/04/08 09:34:54;;;;;;;0.10;0.10;;;;;;;10.18;69.84;98771.06;5046884;28;20076;-65
2022/04/08 09:37:20;;;;;;;0.32;0.30;;;;;;;10.37;68.27;98765.16;5038425;28;20036;-64
2022/04/08 09:39:56;;;;;;;0.10;0.10;;;;;;;10.41;67.79;98757.81;5033982;28;20124;-64
2022/04/08 09:42:23;;;;;;;0.10;0.10;;;;;;;10.32;67.87;98765.56;5017890;28;20033;-63
2022/04/08 09:44:48;;;;;;;0.10;0.10;;;;;;;10.49;66.66;98759.25;5037361;28;20111;-64
2022/04/08 09:47:14;;;;;;;0.20;0.20;;;;;;;10.88;66.93;98759.59;5038926;28;20171;-64
2022/04/08 09:49:41;;;;;;;0.10;0.10;;;;;;;11.14;64.41;98751.97;5035531;28;20030;-64
2022/04/08 09:52:07;;;;;;;0.10;0.10;;;;;;;10.99;62.46;98758.69;5038503;28;20463;-65
2022/04/08 09:54:33;;;;;;;0.20;0.20;;;;;;;10.85;62.66;98746.94;5031287;28;20025;-62
2022/04/08 09:57:00;;;;;;;0.10;0.10;;;;;;;10.93;63.00;98757.63;5032846;28;20033;-64
2022/04/08 09:59:29;;;;;;;0.10;0.10;;;;;;;11.00;62.67;98762.91;5037766;28;20426;-64
2022/04/08 10:01:58;;;;;;;0.10;0.10;;;;;;;11.13;64.58;98770.03;5041937;28;20167;-63
2022/04/08 10:04:24;;;;;;;0.10;0.10;;;;;;;11.20;63.05;98763.81;5035292;28;20036;-65
2022/04/08 10:06:49;;;;;;;0.17;0.17;;;;;;;11.42;61.61;98765.06;5030629;28;20403;-64
2022/04/08 10:09:19;;;;;;;0.10;0.10;;;;;;;11.28;60.93;98765.25;5041217;28;20045;-64
2022/04/08 10:11:50;;;;;;;0.10;0.10;;;;;;;11.45;61.63;98766.94;5033794;28;20040;-63
2022/04/08 10:14:28;;;;;;;0.10;0.10;;;;;;;11.40;59.44;98764.69;5038997;28;20044;-64
2022/04/08 10:16:55;;;;;;;0.10;0.10;;;;;;;11.75;58.80;98762.25;5036152;28;20048;-65
2022/04/08 10:19:24;;;;;;;0.10;0.10;;;;;;;12.09;56.01;98748.63;5035905;28;20384;-65
2022/04/08 10:21:53;;;;;;;0.10;0.10;;;;;;;12.33;56.03;98754.78;5027656;28;20064;-64
2022/04/08 10:24:31;;;;;;;0.10;0.10;;;;;;;12.53;53.96;98755.53;5032383;28;20047;-61
2022/04/08 10:27:09;;;;;;;0.10;0.10;;;;;;;12.52;55.70;98745.94;5009510;28;20041;-64
2022/04/08 10:29:36;;;;;;;0.10;0.10;;;;;;;12.55;54.71;98740.47;5042398;28;20048;-63
2022/04/08 10:32:04;;;;;;;0.05;0.05;;;;;;;12.67;55.76;98750.66;5047057;28;20036;-63
2022/04/08 10:34:32;;;;;;;0.10;0.10;;;;;;;12.52;55.92;98735.13;5042630;28;20032;-64
2022/04/08 10:37:13;;;;;;;0.10;0.10;;;;;;;12.25;56.13;98737.91;5045587;28;20112;-64
2022/04/08 10:39:42;;;;;;;0.10;0.10;;;;;;;11.79;55.96;98740.63;5041641;28;20078;-65
2022/04/08 10:42:20;;;;;;;0.10;0.10;;;;;;;11.51;59.08;98743.75;5039233;28;20048;-63
2022/04/08 10:44:45;;;;;;;0.10;0.10;;;;;;;11.94;59.09;98736.56;5037775;28;20090;-64
2022/04/08 10:47:14;;;;;;;0.10;0.10;;;;;;;11.94;56.43;98743.88;5048019;28;20036;-65
2022/04/08 10:49:50;;;;;;;0.00;0.00;;;;;;;11.84;55.12;98742.88;5042714;28;20361;-63
2022/04/08 10:52:25;;;;;;;0.10;0.10;;;;;;;12.48;55.69;98746.00;5037769;28;20102;-64
2022/04/08 10:54:52;;;;;;;0.10;0.10;;;;;;;12.93;55.36;98745.53;5041120;28;20139;-64
2022/04/08 10:57:54;;;;;;;0.10;0.10;;;;;;;13.11;54.33;98735.13;5038676;28;20036;-64
2022/04/08 11:00:19;;;;;;;0.00;0.00;;;;;;;13.27;53.27;98743.28;5006254;28;20689;-64
2022/04/08 11:02:46;;;;;;;0.52;0.40;;;;;;;13.15;52.37;98741.22;5034146;28;20048;-64
2022/04/08 11:05:13;;;;;;;0.00;0.00;;;;;;;13.23;51.64;98739.88;5043727;28;20360;-65
2022/04/08 11:07:40;;;;;;;0.00;0.00;;;;;;;13.56;51.22;98736.03;5041594;28;20422;-64
2022/04/08 11:10:12;;;;;;;0.00;0.00;;;;;;;13.45;50.23;98736.28;5046514;28;21061;-64
2022/04/08 11:12:48;;;;;;;0.00;0.00;;;;;;;13.17;50.50;98734.22;5043352;28;20064;-65
2022/04/08 11:15:19;;;;;;;0.00;0.00;;;;;;;13.48;50.74;98732.75;5032905;28;21494;-66
2022/04/08 11:17:49;;;;;;;0.77;0.77;;;;;;;13.42;50.75;98737.13;5015336;28;20049;-64
2022/04/08 11:20:20;;;;;;;0.10;0.10;;;;;;;13.27;47.67;98737.88;5033606;28;20056;-64
2022/04/08 11:22:48;;;;;;;0.00;0.00;;;;;;;13.49;47.07;98747.78;5033411;28;20100;-64
2022/04/08 11:25:28;;;;;;;0.08;0.08;;;;;;;13.46;46.84;98740.53;5033498;28;20078;-63
2022/04/08 11:28:12;;;;;;;0.05;0.05;;;;;;;14.14;46.88;98732.31;5037183;28;20021;-65
2022/04/08 11:30:39;;;;;;;0.00;0.00;;;;;;;14.30;45.65;98718.75;5039386;28;20052;-65
2022/04/08 11:33:19;;;;;;;0.00;0.00;;;;;;;14.37;45.23;98734.06;5043645;28;20612;-65
2022/04/08 11:35:46;;;;;;;0.00;0.00;;;;;;;14.35;44.65;98734.50;5036025;28;20183;-63
2022/04/08 11:38:12;;;;;;;0.00;0.00;;;;;;;14.21;44.56;98729.41;5035550;28;20036;-64